Time;durP1;ratioP1;P1;durP2;ratioP2;P2;SDS_P1;SDS_P2;PMS_P1;PMS_P2;Temp;Humidity;BMP_temperature;BMP_pressure;BME280_temperature;BME280_humidity;BME280_pressure;Samples;Min_cycle;Max_cycle;Signal;HPM_P1;HPM_P2
2022/02/21 00:00:23;;;;;;;3.13;0.77;;;9.50;99.90;;;;;;5122258;28;20208;-61
2022/02/21 00:02:56;;;;;;;1.70;0.50;;;9.70;99.90;;;;;;5120250;28;20454;-60
2022/02/21 00:05:27;;;;;;;0.85;0.50;;;9.80;99.90;;;;;;5123012;28;20426;-61
2022/02/21 00:07:58;;;;;;;3.20;0.75;;;9.80;99.90;;;;;;5121974;28;20220;-61
2022/02/21 00:10:28;;;;;;;0.50;0.40;;;9.80;99.90;;;;;;5122169;28;20208;-61
2022/02/21 00:12:59;;;;;;;1.43;0.50;;;9.80;99.90;;;;;;5121984;28;20208;-60
2022/02/21 00:15:30;;;;;;;2.57;0.80;;;9.80;99.90;;;;;;5122588;28;20454;-61
2022/02/21 00:18:03;;;;;;;0.50;0.50;;;9.80;99.90;;;;;;5122229;28;20765;-60
2022/02/21 00:20:33;;;;;;;1.00;0.70;;;10.00;99.90;;;;;;5121305;28;20180;-60
2022/02/21 00:23:05;;;;;;;1.63;0.50;;;10.20;99.90;;;;;;5122162;28;20207;-60
2022/02/21 00:25:36;;;;;;;0.87;0.60;;;10.10;99.90;;;;;;5121186;28;20204;-60
2022/02/21 00:28:07;;;;;;;1.23;0.50;;;10.10;99.90;;;;;;5122042;28;20562;-60
2022/02/21 00:30:38;;;;;;;3.57;0.60;;;10.30;99.90;;;;;;5121820;28;20442;-60
2022/02/21 00:33:11;;;;;;;1.47;0.50;;;10.40;99.90;;;;;;5122458;28;20529;-61
2022/02/21 00:35:42;;;;;;;1.17;0.40;;;10.60;99.90;;;;;;5122265;28;20458;-61
2022/02/21 00:38:13;;;;;;;0.70;0.47;;;10.40;99.90;;;;;;5120947;28;20453;-61
2022/02/21 00:40:43;;;;;;;0.70;0.70;;;10.40;99.90;;;;;;5121979;28;20545;-62
2022/02/21 00:43:15;;;;;;;1.23;0.67;;;10.30;99.90;;;;;;5121142;28;20452;-62
2022/02/21 00:45:45;;;;;;;2.37;0.40;;;10.30;99.90;;;;;;5122264;28;20829;-61
2022/02/21 00:48:19;;;;;;;1.53;0.40;;;10.00;99.90;;;;;;5126731;28;20845;-65
2022/02/21 00:50:50;;;;;;;0.67;0.50;;;10.00;99.90;;;;;;5118232;28;20457;-61
2022/02/21 00:53:21;;;;;;;1.92;0.77;;;9.90;99.90;;;;;;5125442;28;20893;-60
2022/02/21 00:55:52;;;;;;;1.33;0.70;;;9.60;99.90;;;;;;5121337;28;20251;-60
2022/02/21 00:58:22;;;;;;;1.55;0.80;;;9.50;99.90;;;;;;5125527;28;20449;-61
2022/02/21 01:00:53;;;;;;;1.38;0.60;;;9.50;99.90;;;;;;5126198;28;20188;-60
2022/02/21 01:03:26;;;;;;;1.67;0.70;;;9.50;99.90;;;;;;5125673;28;20195;-60
2022/02/21 01:05:57;;;;;;;2.47;0.67;;;9.50;99.90;;;;;;5125501;28;20195;-60
2022/02/21 01:08:28;;;;;;;3.13;0.90;;;9.20;99.90;;;;;;5125377;27;20485;-66
2022/02/21 01:10:59;;;;;;;1.63;0.60;;;9.10;99.90;;;;;;5125886;28;20486;-61
2022/02/21 01:13:30;;;;;;;2.75;0.75;;;8.90;99.90;;;;;;5123171;28;20556;-62
2022/02/21 01:16:01;;;;;;;1.83;0.75;;;8.70;99.90;;;;;;5124182;28;20215;-61
2022/02/21 01:18:33;;;;;;;1.02;0.82;;;8.60;99.90;;;;;;5126028;28;20181;-60
2022/02/21 01:21:05;;;;;;;3.45;0.80;;;8.50;99.90;;;;;;5125908;28;20196;-60
2022/02/21 01:23:40;;;;;;;2.88;0.80;;;8.50;99.90;;;;;;5122408;28;20196;-60
2022/02/21 01:26:13;;;;;;;2.25;0.85;;;8.40;99.90;;;;;;5122024;28;20192;-60
2022/02/21 01:28:43;;;;;;;1.88;0.80;;;8.30;99.90;;;;;;5124249;28;20465;-62
2022/02/21 01:31:14;;;;;;;3.55;3.13;;;8.20;99.90;;;;;;5123221;28;20628;-61
2022/02/21 01:33:47;;;;;;;3.20;2.20;;;8.10;99.90;;;;;;5125695;28;20348;-60
2022/02/21 01:36:18;;;;;;;1.58;1.15;;;8.10;99.90;;;;;;5126245;28;20223;-62
2022/02/21 01:38:49;;;;;;;3.50;1.38;;;8.00;99.90;;;;;;5124298;28;20200;-61
2022/02/21 01:41:20;;;;;;;2.40;1.00;;;7.90;99.90;;;;;;5125089;28;20505;-60
2022/02/21 01:43:50;;;;;;;3.47;2.50;;;7.90;99.90;;;;;;5118498;28;20322;-61
2022/02/21 01:46:21;;;;;;;1.55;1.40;;;7.90;99.90;;;;;;5125765;28;20188;-60
2022/02/21 01:48:54;;;;;;;6.35;2.35;;;7.80;99.90;;;;;;5119639;28;20361;-62
2022/02/21 01:51:25;;;;;;;1.45;1.17;;;7.80;99.90;;;;;;5123110;28;20228;-61
2022/02/21 01:53:57;;;;;;;6.60;5.88;;;7.60;99.90;;;;;;5122083;28;20556;-60
2022/02/21 01:56:28;;;;;;;3.80;2.92;;;7.60;99.90;;;;;;5125698;28;20224;-61
2022/02/21 01:58:59;;;;;;;2.08;1.20;;;7.50;99.90;;;;;;5122970;27;20214;-66
2022/02/21 02:01:43;;;;;;;4.05;3.75;;;7.50;99.90;;;;;;5125536;28;20546;-63
2022/02/21 02:04:15;;;;;;;6.10;5.07;;;7.40;99.90;;;;;;5124808;28;20271;-66
2022/02/21 02:06:47;;;;;;;5.63;3.70;;;7.30;99.90;;;;;;5125079;28;20215;-65
2022/02/21 02:09:18;;;;;;;4.65;3.28;;;7.20;99.90;;;;;;5123326;28;21397;-65
2022/02/21 02:11:55;;;;;;;1.30;1.05;;;7.20;99.90;;;;;;5125659;28;20200;-64
2022/02/21 02:14:30;;;;;;;4.05;1.70;;;7.20;99.90;;;;;;5124258;28;20196;-69
2022/02/21 02:17:03;;;;;;;1.55;1.27;;;7.20;99.90;;;;;;5124755;28;20197;-68
2022/02/21 02:19:36;;;;;;;3.22;2.53;;;7.10;99.90;;;;;;5124850;28;20252;-64
2022/02/21 02:22:14;;;;;;;1.98;1.65;;;7.00;99.90;;;;;;5124853;28;20200;-69
2022/02/21 02:24:46;;;;;;;3.60;1.63;;;6.90;99.90;;;;;;5123551;27;20291;-68
2022/02/21 02:27:18;;;;;;;2.00;1.90;;;6.80;99.90;;;;;;5125517;28;20211;-66
2022/02/21 02:29:52;;;;;;;2.28;2.08;;;6.80;99.90;;;;;;5124490;28;20238;-62
2022/02/21 02:32:23;;;;;;;4.38;2.10;;;6.90;99.90;;;;;;5118837;28;20215;-63
2022/02/21 02:34:54;;;;;;;3.67;2.38;;;6.90;99.90;;;;;;5123173;28;20195;-59
2022/02/21 02:37:28;;;;;;;4.30;3.13;;;6.70;99.90;;;;;;5116745;28;20200;-60
2022/02/21 02:39:59;;;;;;;4.43;3.63;;;6.70;99.90;;;;;;5121204;28;20537;-61
2022/02/21 02:42:30;;;;;;;6.60;3.53;;;6.70;99.90;;;;;;5123353;28;20196;-60
2022/02/21 02:45:01;;;;;;;2.67;1.60;;;6.60;99.90;;;;;;5123643;28;20200;-60
2022/02/21 02:47:33;;;;;;;3.03;2.10;;;6.50;99.90;;;;;;5123027;28;20200;-59
2022/02/21 02:50:04;;;;;;;4.15;2.25;;;6.60;99.90;;;;;;5123860;28;20210;-60
2022/02/21 02:52:37;;;;;;;3.80;2.05;;;6.60;99.90;;;;;;5123597;28;20663;-62
2022/02/21 02:55:10;;;;;;;4.85;2.85;;;6.60;99.90;;;;;;5122993;28;20214;-63
2022/02/21 02:57:44;;;;;;;3.45;3.15;;;6.60;99.90;;;;;;5123538;28;20192;-63
2022/02/21 03:00:17;;;;;;;3.15;2.72;;;6.50;99.90;;;;;;5120116;28;20267;-62
2022/02/21 03:02:49;;;;;;;5.35;3.33;;;6.50;99.90;;;;;;5122546;28;20265;-62
2022/02/21 03:05:20;;;;;;;4.78;3.10;;;6.50;99.90;;;;;;5122606;28;20192;-62
2022/02/21 03:07:53;;;;;;;2.95;2.72;;;6.50;99.90;;;;;;5120924;28;20208;-62
2022/02/21 03:10:24;;;;;;;4.55;3.00;;;6.60;99.90;;;;;;5121415;28;20214;-60
2022/02/21 03:12:54;;;;;;;6.82;2.95;;;6.60;99.90;;;;;;5123726;28;20204;-62
2022/02/21 03:15:26;;;;;;;5.32;3.83;;;6.50;99.90;;;;;;5121837;28;20199;-61
2022/02/21 03:17:58;;;;;;;2.22;2.13;;;6.40;99.90;;;;;;5123134;28;20184;-62
2022/02/21 03:20:29;;;;;;;2.95;1.80;;;6.40;99.90;;;;;;5122711;28;20195;-62
2022/02/21 03:23:02;;;;;;;2.58;2.10;;;6.40;99.90;;;;;;5123010;28;20208;-62
2022/02/21 03:25:32;;;;;;;2.10;1.90;;;6.40;99.90;;;;;;5122969;28;20235;-62
2022/02/21 03:28:03;;;;;;;3.33;1.92;;;6.20;99.90;;;;;;5123542;28;20199;-62
2022/02/21 03:30:35;;;;;;;2.78;2.30;;;6.20;99.90;;;;;;5122990;28;20630;-62
2022/02/21 03:33:07;;;;;;;8.13;3.55;;;6.10;99.90;;;;;;5121948;28;20212;-62
2022/02/21 03:35:38;;;;;;;5.30;3.45;;;6.10;99.90;;;;;;5120113;28;20199;-62
2022/02/21 03:38:12;;;;;;;3.15;2.50;;;6.20;99.90;;;;;;5120859;28;20210;-63
2022/02/21 03:40:43;;;;;;;4.72;2.67;;;6.20;99.90;;;;;;5123320;28;20303;-63
2022/02/21 03:43:17;;;;;;;3.40;2.38;;;6.30;99.90;;;;;;5122923;28;20199;-63
2022/02/21 03:45:48;;;;;;;4.82;3.38;;;6.40;99.90;;;;;;5116780;28;20211;-63
2022/02/21 03:48:19;;;;;;;6.20;3.92;;;6.50;99.90;;;;;;5123547;28;20180;-65
2022/02/21 03:50:50;;;;;;;4.20;3.00;;;6.50;99.90;;;;;;5122689;28;20222;-63
2022/02/21 03:53:23;;;;;;;3.47;2.97;;;6.60;99.90;;;;;;5122435;28;20196;-63
2022/02/21 03:55:55;;;;;;;5.65;2.75;;;6.40;99.90;;;;;;5122070;28;20224;-63
2022/02/21 03:58:26;;;;;;;2.58;2.30;;;6.50;99.90;;;;;;5122799;28;21092;-63
2022/02/21 04:00:57;;;;;;;4.15;3.15;;;6.40;99.90;;;;;;5122147;28;20264;-63
2022/02/21 04:03:32;;;;;;;2.50;2.20;;;6.30;99.90;;;;;;5122822;28;20685;-64
2022/02/21 04:06:03;;;;;;;3.30;3.00;;;6.20;99.90;;;;;;5123437;28;20199;-63
2022/02/21 04:08:38;;;;;;;5.57;2.55;;;6.10;99.90;;;;;;5121704;28;20218;-62
2022/02/21 04:11:09;;;;;;;3.40;3.10;;;6.20;99.90;;;;;;5122667;28;20267;-63
2022/02/21 04:13:40;;;;;;;3.90;3.50;;;6.10;99.90;;;;;;5121124;28;20602;-62
2022/02/21 04:16:11;;;;;;;4.82;3.58;;;6.00;99.90;;;;;;5121988;28;20280;-62
2022/02/21 04:18:42;;;;;;;4.80;3.17;;;5.90;99.90;;;;;;5122658;28;20279;-62
2022/02/21 04:21:22;;;;;;;6.00;2.85;;;5.90;99.90;;;;;;5122611;28;20256;-63
2022/02/21 04:24:03;;;;;;;3.22;2.92;;;6.00;99.90;;;;;;5119006;28;20214;-63
2022/02/21 04:26:34;;;;;;;3.55;2.80;;;6.10;99.90;;;;;;5122294;28;20206;-62
2022/02/21 04:29:05;;;;;;;7.43;3.45;;;6.20;99.90;;;;;;5122353;28;20544;-62
2022/02/21 04:31:36;;;;;;;2.75;2.55;;;6.30;99.90;;;;;;5122929;28;20253;-62
2022/02/21 04:34:07;;;;;;;3.28;2.78;;;6.30;99.90;;;;;;5122732;28;20508;-62
2022/02/21 04:36:46;;;;;;;6.50;5.45;;;6.30;99.90;;;;;;5114471;28;20210;-62
2022/02/21 04:39:22;;;;;;;6.22;5.63;;;6.30;99.90;;;;;;5119359;28;20202;-62
2022/02/21 04:41:52;;;;;;;9.02;6.65;;;6.20;99.90;;;;;;5122551;28;20263;-61
2022/02/21 04:44:29;;;;;;;7.60;6.30;;;6.20;99.90;;;;;;5122123;28;20203;-62
2022/02/21 04:47:00;;;;;;;7.13;6.43;;;6.10;99.90;;;;;;5122301;28;20199;-62
2022/02/21 04:49:34;;;;;;;7.55;6.85;;;6.10;99.90;;;;;;5120930;28;20219;-63
2022/02/21 04:52:06;;;;;;;7.65;5.30;;;6.00;99.90;;;;;;5119043;28;20211;-62
2022/02/21 04:54:44;;;;;;;3.97;3.67;;;6.00;99.90;;;;;;5119727;28;20200;-62
2022/02/21 04:57:15;;;;;;;5.07;4.57;;;6.00;99.90;;;;;;5118594;28;20224;-62
2022/02/21 04:59:51;;;;;;;4.47;4.13;;;5.80;99.90;;;;;;5118699;28;20242;-62
2022/02/21 05:02:22;;;;;;;6.07;4.25;;;5.80;99.90;;;;;;5120173;28;20214;-65
2022/02/21 05:04:57;;;;;;;3.80;3.45;;;5.80;99.90;;;;;;5120932;28;20206;-62
2022/02/21 05:07:27;;;;;;;6.57;4.55;;;5.80;99.90;;;;;;5118650;28;20203;-62
2022/02/21 05:10:06;;;;;;;4.43;4.03;;;5.80;99.90;;;;;;5116420;28;20231;-62
2022/02/21 05:12:37;;;;;;;4.40;4.10;;;5.80;99.90;;;;;;5115334;28;20221;-62
2022/02/21 05:15:10;;;;;;;4.05;3.65;;;5.80;99.90;;;;;;5115029;28;20228;-62
2022/02/21 05:17:42;;;;;;;4.50;3.28;;;5.80;99.90;;;;;;5117273;28;20207;-61
2022/02/21 05:20:21;;;;;;;5.07;3.22;;;5.80;99.90;;;;;;5120543;28;20200;-61
2022/02/21 05:22:52;;;;;;;3.42;2.88;;;5.90;99.90;;;;;;5121388;28;20183;-62
2022/02/21 05:25:26;;;;;;;2.95;2.67;;;5.90;99.90;;;;;;5120123;28;20180;-63
2022/02/21 05:27:57;;;;;;;4.20;2.92;;;6.00;99.90;;;;;;5119227;28;20560;-63
2022/02/21 05:30:28;;;;;;;3.00;2.70;;;6.00;99.90;;;;;;5121794;28;20227;-64
2022/02/21 05:32:59;;;;;;;3.88;2.85;;;5.90;99.90;;;;;;5122306;28;20307;-63
2022/02/21 05:35:30;;;;;;;3.42;2.70;;;6.00;99.90;;;;;;5121574;28;20287;-63
2022/02/21 05:38:01;;;;;;;6.38;3.25;;;6.10;99.90;;;;;;5122144;28;20259;-63
2022/02/21 05:40:43;;;;;;;3.60;3.30;;;6.10;99.90;;;;;;5125474;28;20206;-63
2022/02/21 05:43:14;;;;;;;4.50;3.45;;;6.10;99.90;;;;;;5121397;28;20269;-63
2022/02/21 05:45:45;;;;;;;4.45;3.70;;;6.00;99.90;;;;;;5119566;28;20214;-63
2022/02/21 05:48:16;;;;;;;3.25;2.70;;;6.00;99.90;;;;;;5118351;28;20207;-62
2022/02/21 05:50:53;;;;;;;4.25;3.25;;;6.10;99.90;;;;;;5120430;28;20304;-63
2022/02/21 05:53:25;;;;;;;4.38;3.17;;;6.00;99.90;;;;;;5122321;28;20195;-63
2022/02/21 05:56:00;;;;;;;3.65;3.30;;;6.00;99.90;;;;;;5124971;27;20283;-63
2022/02/21 05:58:31;;;;;;;6.80;3.40;;;6.00;99.90;;;;;;5124684;28;20200;-63
2022/02/21 06:01:02;;;;;;;5.00;3.65;;;6.10;99.90;;;;;;5120875;28;20208;-63
2022/02/21 06:03:33;;;;;;;5.60;3.67;;;6.10;99.90;;;;;;5123915;28;20204;-63
2022/02/21 06:06:10;;;;;;;5.10;3.03;;;6.10;99.90;;;;;;5123930;28;20200;-63
2022/02/21 06:08:40;;;;;;;5.55;3.08;;;6.10;99.90;;;;;;5121772;28;20278;-63
2022/02/21 06:11:13;;;;;;;3.20;2.95;;;6.10;99.90;;;;;;5125379;28;20208;-63
2022/02/21 06:13:47;;;;;;;4.20;2.80;;;6.10;99.90;;;;;;5123325;28;20241;-63
2022/02/21 06:16:18;;;;;;;5.20;3.30;;;6.00;99.90;;;;;;5123983;28;20334;-63
2022/02/21 06:18:49;;;;;;;5.97;3.15;;;6.00;99.90;;;;;;5123021;28;20264;-63
2022/02/21 06:21:20;;;;;;;6.07;3.40;;;6.10;99.90;;;;;;5124650;28;20215;-63
2022/02/21 06:23:51;;;;;;;4.07;3.05;;;6.10;99.90;;;;;;5122918;28;20184;-63
2022/02/21 06:26:25;;;;;;;4.15;3.38;;;6.10;99.90;;;;;;5125157;28;20188;-63
2022/02/21 06:28:56;;;;;;;4.88;2.50;;;6.20;99.90;;;;;;5120760;28;20298;-63
2022/02/21 06:31:27;;;;;;;3.58;2.95;;;6.30;99.90;;;;;;5122480;28;20627;-62
2022/02/21 06:33:58;;;;;;;5.10;3.72;;;6.40;99.90;;;;;;5121064;28;20203;-61
2022/02/21 06:36:29;;;;;;;5.20;2.95;;;6.30;99.90;;;;;;5123781;28;20193;-62
2022/02/21 06:39:00;;;;;;;2.33;2.05;;;6.30;99.90;;;;;;5123081;28;20206;-62
2022/02/21 06:41:33;;;;;;;3.42;2.30;;;6.30;99.90;;;;;;5124587;28;20196;-62
2022/02/21 06:44:04;;;;;;;4.07;2.78;;;6.40;99.90;;;;;;5122692;28;20200;-62
2022/02/21 06:46:35;;;;;;;4.60;2.25;;;6.50;99.90;;;;;;5121828;28;20267;-62
2022/02/21 06:49:12;;;;;;;2.70;2.50;;;6.60;99.90;;;;;;5122463;28;20264;-62
2022/02/21 06:51:43;;;;;;;2.63;2.10;;;6.50;99.90;;;;;;5123426;28;20640;-62
2022/02/21 06:54:15;;;;;;;3.00;1.77;;;6.50;99.90;;;;;;5119771;28;20251;-62
2022/02/21 06:56:47;;;;;;;2.60;2.40;;;6.50;99.90;;;;;;5123792;28;20255;-61
2022/02/21 06:59:18;;;;;;;2.95;2.63;;;6.40;99.90;;;;;;5121479;28;20195;-62
2022/02/21 07:01:49;;;;;;;3.55;2.40;;;6.40;99.90;;;;;;5123722;28;20488;-62
2022/02/21 07:04:20;;;;;;;3.80;2.55;;;6.30;99.90;;;;;;5122872;28;20246;-62
2022/02/21 07:06:52;;;;;;;3.10;2.80;;;6.40;99.90;;;;;;5123272;28;20225;-62
2022/02/21 07:09:25;;;;;;;2.63;2.42;;;6.30;99.90;;;;;;5121962;28;20257;-62
2022/02/21 07:11:57;;;;;;;5.22;3.03;;;6.20;99.90;;;;;;5121578;28;20208;-62
2022/02/21 07:14:29;;;;;;;3.72;3.42;;;6.10;99.90;;;;;;5121155;28;20196;-62
2022/02/21 07:16:59;;;;;;;6.13;2.92;;;6.10;99.90;;;;;;5122657;28;20227;-62
2022/02/21 07:19:30;;;;;;;5.18;3.42;;;6.10;99.90;;;;;;5122752;28;20263;-62
2022/02/21 07:22:01;;;;;;;5.50;3.08;;;6.00;99.90;;;;;;5120951;28;20256;-62
2022/02/21 07:24:33;;;;;;;4.03;3.58;;;5.90;99.90;;;;;;5122615;28;20185;-65
2022/02/21 07:27:06;;;;;;;4.70;3.60;;;6.00;99.90;;;;;;5123397;28;20184;-63
2022/02/21 07:29:38;;;;;;;5.72;4.00;;;6.10;99.90;;;;;;5121883;28;20201;-63
2022/02/21 07:32:09;;;;;;;6.10;3.15;;;6.00;99.90;;;;;;5122819;28;20226;-63
2022/02/21 07:34:40;;;;;;;3.90;2.60;;;5.80;99.90;;;;;;5121497;28;20211;-63
2022/02/21 07:37:11;;;;;;;5.75;3.08;;;5.80;99.90;;;;;;5119414;28;20635;-64
2022/02/21 07:39:42;;;;;;;6.20;2.95;;;5.80;99.90;;;;;;5121930;28;20251;-63
2022/02/21 07:42:15;;;;;;;4.93;3.03;;;5.70;99.90;;;;;;5123034;28;20192;-63
2022/02/21 07:44:45;;;;;;;7.43;4.13;;;5.60;99.90;;;;;;5119724;28;20204;-63
2022/02/21 07:47:16;;;;;;;4.97;2.90;;;5.60;99.90;;;;;;5123325;28;20540;-63
2022/02/21 07:49:47;;;;;;;4.65;3.40;;;5.60;99.90;;;;;;5122335;28;20204;-63
2022/02/21 07:52:18;;;;;;;4.75;3.05;;;5.60;99.90;;;;;;5121740;28;20227;-64
2022/02/21 07:54:51;;;;;;;6.05;3.35;;;5.60;99.90;;;;;;5122027;28;20298;-63
2022/02/21 07:57:23;;;;;;;4.15;3.35;;;5.60;99.90;;;;;;5122887;28;20291;-63
2022/02/21 07:59:54;;;;;;;3.60;3.30;;;5.60;99.90;;;;;;5121550;28;20279;-63
2022/02/21 08:02:27;;;;;;;3.78;2.83;;;5.70;99.90;;;;;;5122666;28;20196;-63
2022/02/21 08:04:57;;;;;;;5.47;3.83;;;5.70;99.90;;;;;;5122035;28;20259;-63
2022/02/21 08:07:28;;;;;;;7.00;2.58;;;5.70;99.90;;;;;;5122398;28;20540;-64
2022/02/21 08:09:59;;;;;;;3.67;2.60;;;5.80;99.90;;;;;;5122955;28;20279;-63
2022/02/21 08:12:32;;;;;;;4.68;3.20;;;5.70;99.90;;;;;;5120866;28;20292;-63
2022/02/21 08:15:03;;;;;;;6.05;3.08;;;5.60;99.90;;;;;;5121818;28;20211;-63
2022/02/21 08:17:40;;;;;;;2.50;2.10;;;5.70;99.90;;;;;;5122348;28;20199;-63
2022/02/21 08:20:15;;;;;;;3.38;2.80;;;5.60;99.90;;;;;;5121299;28;20257;-63
2022/02/21 08:22:46;;;;;;;3.33;2.63;;;5.60;99.90;;;;;;5121095;28;20533;-63
2022/02/21 08:25:18;;;;;;;4.40;2.45;;;5.60;99.90;;;;;;5121541;28;20279;-63
2022/02/21 08:27:52;;;;;;;4.00;2.75;;;5.70;99.90;;;;;;5122568;28;20202;-63
2022/02/21 08:30:24;;;;;;;2.55;2.30;;;5.70;99.90;;;;;;5121443;28;20201;-64
2022/02/21 08:32:55;;;;;;;4.30;2.45;;;5.70;99.90;;;;;;5122263;28;20231;-64
2022/02/21 08:35:28;;;;;;;4.65;2.55;;;5.70;99.90;;;;;;5122444;28;20200;-64
2022/02/21 08:38:02;;;;;;;3.10;2.40;;;5.70;99.90;;;;;;5121977;28;20192;-63
2022/02/21 08:40:34;;;;;;;6.20;2.30;;;5.70;99.90;;;;;;5112122;28;20305;-63
2022/02/21 08:43:06;;;;;;;2.85;2.03;;;5.70;99.90;;;;;;5122398;28;20184;-63
2022/02/21 08:45:37;;;;;;;6.10;2.05;;;5.70;99.90;;;;;;5121695;28;20206;-63
2022/02/21 08:48:08;;;;;;;3.75;2.42;;;5.70;99.90;;;;;;5122404;28;20214;-63
2022/02/21 08:50:39;;;;;;;2.33;1.95;;;5.70;99.90;;;;;;5121466;28;20299;-63
2022/02/21 08:53:10;;;;;;;4.78;2.55;;;5.60;99.90;;;;;;5121882;28;20247;-63
2022/02/21 08:55:41;;;;;;;3.92;2.22;;;5.60;99.90;;;;;;5122167;28;20224;-63
2022/02/21 08:58:13;;;;;;;3.67;2.42;;;5.70;99.90;;;;;;5122044;28;20311;-63
2022/02/21 09:00:44;;;;;;;2.00;1.80;;;5.70;99.90;;;;;;5121585;28;20196;-63
2022/02/21 09:03:20;;;;;;;2.53;1.77;;;5.60;99.90;;;;;;5117673;28;20539;-63
2022/02/21 09:05:51;;;;;;;4.35;1.98;;;5.60;99.90;;;;;;5118809;28;20215;-63
2022/02/21 09:08:22;;;;;;;2.05;1.80;;;5.50;99.90;;;;;;5117043;28;20184;-63
2022/02/21 09:10:53;;;;;;;3.20;1.90;;;5.50;99.90;;;;;;5125771;28;20206;-63
2022/02/21 09:13:26;;;;;;;2.60;1.80;;;5.50;99.90;;;;;;5125733;28;20251;-63
2022/02/21 09:15:57;;;;;;;2.42;1.63;;;5.60;99.90;;;;;;5125484;28;20301;-63
2022/02/21 09:18:28;;;;;;;1.60;1.50;;;5.60;99.90;;;;;;5122361;28;20200;-63
2022/02/21 09:20:59;;;;;;;2.00;1.80;;;5.60;99.90;;;;;;5124468;28;20204;-63
2022/02/21 09:23:29;;;;;;;3.67;2.10;;;5.60;99.90;;;;;;5125835;28;20206;-63
2022/02/21 09:26:00;;;;;;;4.65;1.60;;;5.60;99.90;;;;;;5126198;28;20184;-63
2022/02/21 09:28:33;;;;;;;2.90;1.58;;;5.60;99.90;;;;;;5125115;28;20226;-63
2022/02/21 09:31:04;;;;;;;1.70;1.60;;;5.50;99.90;;;;;;5124744;28;20204;-63
2022/02/21 09:33:35;;;;;;;1.38;1.27;;;5.60;99.90;;;;;;5125961;28;20220;-62
2022/02/21 09:36:07;;;;;;;1.65;1.55;;;5.50;99.90;;;;;;5129039;27;20212;-63
2022/02/21 09:38:37;;;;;;;1.80;1.52;;;5.50;99.90;;;;;;5125598;28;20227;-63
2022/02/21 09:41:08;;;;;;;3.03;1.55;;;5.50;99.90;;;;;;5126242;28;20493;-63
2022/02/21 09:43:43;;;;;;;1.77;1.60;;;5.50;99.90;;;;;;5120661;28;20195;-63
2022/02/21 09:46:14;;;;;;;2.95;1.80;;;5.40;99.90;;;;;;5125517;28;20196;-63
2022/02/21 09:48:46;;;;;;;3.63;2.05;;;5.40;99.90;;;;;;5125259;28;20208;-63
2022/02/21 09:51:17;;;;;;;2.80;1.52;;;5.40;99.90;;;;;;5125374;28;20203;-63
2022/02/21 09:53:48;;;;;;;2.85;1.85;;;5.40;99.90;;;;;;5124436;28;20549;-63
2022/02/21 09:56:19;;;;;;;1.63;1.20;;;5.40;99.90;;;;;;5124785;28;20232;-63
2022/02/21 09:58:54;;;;;;;1.73;1.02;;;5.40;99.90;;;;;;5123995;28;20208;-63
2022/02/21 10:01:27;;;;;;;1.25;1.15;;;5.40;99.90;;;;;;5124134;28;20202;-63
2022/02/21 10:03:58;;;;;;;1.23;1.00;;;5.40;99.90;;;;;;5125078;28;20200;-63
2022/02/21 10:06:30;;;;;;;1.85;1.20;;;5.50;99.90;;;;;;5125751;28;20542;-63
2022/02/21 10:09:04;;;;;;;7.32;1.25;;;5.50;99.90;;;;;;5123916;28;20199;-61
2022/02/21 10:11:40;;;;;;;3.42;1.30;;;5.50;99.90;;;;;;5124860;28;20651;-61
2022/02/21 10:14:14;;;;;;;2.05;1.23;;;5.50;99.90;;;;;;5122766;28;20227;-61
2022/02/21 10:16:46;;;;;;;3.72;0.98;;;5.40;99.90;;;;;;5120478;28;20199;-61
2022/02/21 10:19:20;;;;;;;3.17;1.30;;;5.40;99.90;;;;;;5122812;28;20234;-61
2022/02/21 10:22:01;;;;;;;1.80;1.00;;;5.40;99.90;;;;;;5118661;28;20206;-61
2022/02/21 10:24:42;;;;;;;3.10;1.00;;;5.40;99.90;;;;;;5124232;28;20207;-62
2022/02/21 10:27:14;;;;;;;2.55;1.50;;;5.40;99.90;;;;;;5124999;28;20215;-61
2022/02/21 10:29:52;;;;;;;3.53;1.33;;;5.40;99.90;;;;;;5124166;28;20199;-62
2022/02/21 10:32:24;;;;;;;1.75;1.05;;;5.40;99.90;;;;;;5117021;28;20314;-61
2022/02/21 10:34:57;;;;;;;2.22;1.10;;;5.40;99.90;;;;;;5124405;28;20214;-61
2022/02/21 10:37:28;;;;;;;3.47;1.38;;;5.30;99.90;;;;;;5123235;28;20199;-61
2022/02/21 10:40:08;;;;;;;2.90;1.20;;;5.30;99.90;;;;;;5123806;28;20208;-61
2022/02/21 10:42:38;;;;;;;1.75;1.50;;;5.20;99.90;;;;;;5123768;28;21710;-61
2022/02/21 10:45:16;;;;;;;1.58;0.95;;;5.30;99.90;;;;;;5124231;28;20188;-61
2022/02/21 10:48:01;;;;;;;1.27;1.17;;;5.30;99.90;;;;;;5107959;28;20230;-62
2022/02/21 10:50:34;;;;;;;5.18;1.13;;;5.20;99.90;;;;;;5122380;28;20229;-62
2022/02/21 10:53:10;;;;;;;1.10;1.00;;;5.30;99.90;;;;;;5119984;28;20216;-62
2022/02/21 10:55:41;;;;;;;3.45;1.40;;;5.40;99.90;;;;;;5123533;27;20220;-62
2022/02/21 10:58:24;;;;;;;1.67;1.15;;;5.30;99.90;;;;;;5123978;28;20562;-62
2022/02/21 11:00:57;;;;;;;2.78;1.02;;;5.20;99.90;;;;;;5122365;28;20196;-62
2022/02/21 11:03:30;;;;;;;8.48;1.77;;;5.30;99.90;;;;;;5123860;28;20203;-62
2022/02/21 11:06:01;;;;;;;2.72;1.05;;;5.20;99.90;;;;;;5124323;28;20632;-62
2022/02/21 11:08:33;;;;;;;5.05;2.65;;;5.20;99.90;;;;;;5122243;28;20200;-61
2022/02/21 11:11:09;;;;;;;2.05;1.20;;;5.10;99.90;;;;;;5124143;28;20231;-61
2022/02/21 11:13:46;;;;;;;1.92;1.15;;;5.10;99.90;;;;;;5123121;28;20279;-62
2022/02/21 11:16:19;;;;;;;1.95;1.23;;;5.20;99.90;;;;;;5123086;28;20210;-61
2022/02/21 11:18:50;;;;;;;2.33;1.20;;;5.20;99.90;;;;;;5124292;28;20511;-62
2022/02/21 11:21:22;;;;;;;2.55;1.30;;;5.20;99.90;;;;;;5123230;28;20214;-62
2022/02/21 11:23:53;;;;;;;2.95;1.13;;;5.20;99.90;;;;;;5123018;28;20204;-61
2022/02/21 11:26:30;;;;;;;1.95;1.60;;;5.30;99.90;;;;;;5124015;28;20200;-62
2022/02/21 11:29:09;;;;;;;1.48;1.33;;;5.30;99.90;;;;;;5122741;28;20514;-61
2022/02/21 11:31:43;;;;;;;1.45;1.38;;;5.10;99.90;;;;;;5123715;28;20211;-62
2022/02/21 11:34:13;;;;;;;5.88;1.35;;;5.10;99.90;;;;;;5117963;28;20328;-62
2022/02/21 11:36:49;;;;;;;6.55;1.50;;;5.10;99.90;;;;;;5124366;28;20208;-62
2022/02/21 11:39:26;;;;;;;1.10;1.00;;;5.10;99.90;;;;;;5122491;28;20199;-62
2022/02/21 11:42:12;;;;;;;1.90;0.90;;;5.00;99.90;;;;;;5123367;28;20233;-62
2022/02/21 11:44:47;;;;;;;1.30;1.15;;;4.90;99.90;;;;;;5122440;28;20199;-62
2022/02/21 11:47:38;;;;;;;1.85;0.75;;;4.90;99.90;;;;;;5123478;28;20196;-63
2022/02/21 11:50:21;;;;;;;2.58;1.35;;;5.00;99.90;;;;;;5121856;28;20658;-63
2022/02/21 11:52:57;;;;;;;4.25;0.98;;;5.00;99.90;;;;;;5117087;28;20195;-63
2022/02/21 11:55:42;;;;;;;4.38;1.40;;;5.00;99.90;;;;;;5122898;28;20207;-63
2022/02/21 11:58:35;;;;;;;3.33;1.35;;;4.90;99.90;;;;;;5123167;28;20702;-62
2022/02/21 12:01:29;;;;;;;3.00;1.27;;;4.90;99.90;;;;;;5122692;28;20195;-62
2022/02/21 12:04:18;;;;;;;1.83;1.00;;;4.90;99.90;;;;;;5119960;28;20303;-61
2022/02/21 12:06:55;;;;;;;1.63;1.20;;;4.80;99.90;;;;;;5123447;28;20222;-61
2022/02/21 12:09:27;;;;;;;0.77;0.77;;;4.80;99.90;;;;;;5122750;28;20209;-61
2022/02/21 12:12:27;;;;;;;2.97;1.42;;;4.80;99.90;;;;;;5122727;28;20278;-61
2022/02/21 12:15:14;;;;;;;1.45;1.27;;;4.90;99.90;;;;;;5122454;28;20227;-61
2022/02/21 12:17:45;;;;;;;1.00;0.90;;;4.90;99.90;;;;;;5119205;28;20204;-61
2022/02/21 12:20:36;;;;;;;2.67;1.63;;;4.90;99.90;;;;;;5122897;28;20194;-61
2022/02/21 12:23:20;;;;;;;3.70;0.90;;;4.90;99.90;;;;;;5122079;28;20192;-61
2022/02/21 12:26:18;;;;;;;2.85;1.17;;;4.90;99.90;;;;;;5123341;28;20262;-61
2022/02/21 12:29:10;;;;;;;2.70;2.47;;;4.90;99.90;;;;;;5122529;28;20274;-62
2022/02/21 12:31:43;;;;;;;2.05;1.42;;;4.80;99.90;;;;;;5118428;28;20184;-61
2022/02/21 12:34:16;;;;;;;1.73;1.15;;;4.90;99.90;;;;;;5120984;28;20239;-60
2022/02/21 12:36:50;;;;;;;1.45;1.20;;;5.00;99.90;;;;;;5122685;28;20215;-61
2022/02/21 12:39:23;;;;;;;4.72;1.45;;;5.00;99.90;;;;;;5122235;28;20283;-61
2022/02/21 12:41:56;;;;;;;3.60;1.20;;;4.90;99.90;;;;;;5123373;28;20291;-62
2022/02/21 12:44:27;;;;;;;1.20;1.10;;;5.00;99.90;;;;;;5126033;28;20180;-62
2022/02/21 12:47:00;;;;;;;3.58;1.67;;;5.00;99.90;;;;;;5127077;28;20195;-61
2022/02/21 12:49:34;;;;;;;1.55;1.40;;;5.00;99.90;;;;;;5127115;28;20287;-61
2022/02/21 12:52:09;;;;;;;2.25;1.50;;;5.00;99.90;;;;;;5125383;28;20199;-61
2022/02/21 12:54:52;;;;;;;3.63;1.23;;;5.00;99.90;;;;;;5124642;28;20229;-62
2022/02/21 12:57:25;;;;;;;4.53;1.30;;;5.00;99.90;;;;;;5124795;28;20211;-62
2022/02/21 12:59:56;;;;;;;2.88;1.30;;;5.00;99.90;;;;;;5125962;28;20196;-62
2022/02/21 13:02:27;;;;;;;3.95;2.00;;;5.10;99.90;;;;;;5124182;28;20980;-62
2022/02/21 13:05:05;;;;;;;3.33;1.00;;;5.10;99.90;;;;;;5126129;28;20191;-62
2022/02/21 13:07:38;;;;;;;1.40;1.25;;;5.10;99.90;;;;;;5126383;28;20210;-62
2022/02/21 13:10:11;;;;;;;1.27;1.13;;;5.10;99.90;;;;;;5126245;28;20210;-63
2022/02/21 13:12:41;;;;;;;3.45;1.50;;;5.20;99.90;;;;;;5125898;28;20199;-62
2022/02/21 13:15:14;;;;;;;5.97;1.73;;;5.20;99.90;;;;;;5125913;28;20238;-63
2022/02/21 13:17:55;;;;;;;4.10;2.33;;;5.20;99.90;;;;;;5126649;28;20188;-62
2022/02/21 13:20:26;;;;;;;3.63;1.52;;;5.10;99.90;;;;;;5126747;28;20641;-62
2022/02/21 13:23:01;;;;;;;1.52;1.42;;;5.10;99.90;;;;;;5125011;28;20207;-63
2022/02/21 13:25:32;;;;;;;1.70;1.45;;;5.00;99.90;;;;;;5125494;28;20206;-63
2022/02/21 13:28:17;;;;;;;1.45;1.27;;;5.10;99.90;;;;;;5126061;28;20203;-63